sensor_id;sensor_type;location;lat;lon;timestamp;pressure;altitude;pressure_sealevel;temperature;humidity
76086;BME280;64791;0.000;0.000;2023-07-20T00:01:15;93541.69;;;19.29;59.51
76086;BME280;64791;0.000;0.000;2023-07-20T00:03:41;93533.31;;;19.29;59.53
76086;BME280;64791;0.000;0.000;2023-07-20T00:06:06;93538.50;;;19.35;59.25
76086;BME280;64791;0.000;0.000;2023-07-20T00:08:32;93542.75;;;19.36;58.93
76086;BME280;64791;0.000;0.000;2023-07-20T00:10:57;93543.25;;;19.32;58.77
76086;BME280;64791;0.000;0.000;2023-07-20T00:13:23;93539.94;;;19.36;58.24
76086;BME280;64791;0.000;0.000;2023-07-20T00:15:49;93544.31;;;19.39;58.53
76086;BME280;64791;0.000;0.000;2023-07-20T00:18:14;93533.06;;;19.25;58.54
76086;BME280;64791;0.000;0.000;2023-07-20T00:20:40;93538.06;;;19.27;58.17
76086;BME280;64791;0.000;0.000;2023-07-20T00:23:05;93529.38;;;19.34;57.37
76086;BME280;64791;0.000;0.000;2023-07-20T00:25:31;93524.97;;;19.43;57.21
76086;BME280;64791;0.000;0.000;2023-07-20T00:27:57;93511.19;;;19.47;57.42
76086;BME280;64791;0.000;0.000;2023-07-20T00:30:22;93502.91;;;19.49;57.34
76086;BME280;64791;0.000;0.000;2023-07-20T00:32:48;93504.75;;;19.44;57.57
76086;BME280;64791;0.000;0.000;2023-07-20T00:35:15;93497.59;;;19.41;57.60
76086;BME280;64791;0.000;0.000;2023-07-20T00:37:40;93507.66;;;19.21;59.62
76086;BME280;64791;0.000;0.000;2023-07-20T00:40:06;93503.19;;;19.16;58.64
76086;BME280;64791;0.000;0.000;2023-07-20T00:42:34;93492.25;;;19.09;58.46
76086;BME280;64791;0.000;0.000;2023-07-20T00:45:01;93494.41;;;18.85;60.23
76086;BME280;64791;0.000;0.000;2023-07-20T00:47:28;93497.28;;;18.62;61.43
76086;BME280;64791;0.000;0.000;2023-07-20T00:49:54;93499.91;;;18.71;60.27
76086;BME280;64791;0.000;0.000;2023-07-20T00:52:23;93500.94;;;18.53;61.84
76086;BME280;64791;0.000;0.000;2023-07-20T00:54:50;93500.72;;;18.37;62.92
76086;BME280;64791;0.000;0.000;2023-07-20T00:57:17;93505.94;;;18.20;63.17
76086;BME280;64791;0.000;0.000;2023-07-20T00:59:43;93502.16;;;17.92;64.87
76086;BME280;64791;0.000;0.000;2023-07-20T01:02:08;93502.78;;;17.79;65.41
76086;BME280;64791;0.000;0.000;2023-07-20T01:04:34;93512.59;;;17.68;65.14
76086;BME280;64791;0.000;0.000;2023-07-20T01:07:01;93503.81;;;17.62;63.51
76086;BME280;64791;0.000;0.000;2023-07-20T01:09:31;93499.31;;;17.46;66.56
76086;BME280;64791;0.000;0.000;2023-07-20T01:12:07;93491.41;;;17.42;65.23
76086;BME280;64791;0.000;0.000;2023-07-20T01:14:34;93490.59;;;17.51;65.18
76086;BME280;64791;0.000;0.000;2023-07-20T01:16:59;93486.00;;;17.44;65.66
76086;BME280;64791;0.000;0.000;2023-07-20T01:19:25;93485.41;;;17.69;64.52
76086;BME280;64791;0.000;0.000;2023-07-20T01:21:59;93486.38;;;17.62;63.81
76086;BME280;64791;0.000;0.000;2023-07-20T01:32:17;93496.09;;;16.95;67.94
76086;BME280;64791;0.000;0.000;2023-07-20T01:34:43;93513.38;;;16.82;68.11
76086;BME280;64791;0.000;0.000;2023-07-20T01:37:09;93513.03;;;16.88;66.05
76086;BME280;64791;0.000;0.000;2023-07-20T01:39:35;93510.94;;;16.55;67.71
76086;BME280;64791;0.000;0.000;2023-07-20T01:42:03;93510.56;;;16.40;70.00
76086;BME280;64791;0.000;0.000;2023-07-20T01:44:28;93513.06;;;16.36;69.42
76086;BME280;64791;0.000;0.000;2023-07-20T01:46:54;93507.50;;;16.15;70.97
76086;BME280;64791;0.000;0.000;2023-07-20T01:49:20;93498.03;;;15.99;71.19
76086;BME280;64791;0.000;0.000;2023-07-20T01:51:46;93496.88;;;16.02;71.27
76086;BME280;64791;0.000;0.000;2023-07-20T01:54:11;93495.44;;;16.22;69.90
76086;BME280;64791;0.000;0.000;2023-07-20T01:56:37;93490.69;;;16.34;68.86
76086;BME280;64791;0.000;0.000;2023-07-20T01:59:03;93488.63;;;16.34;69.65
76086;BME280;64791;0.000;0.000;2023-07-20T02:01:29;93495.06;;;16.37;69.80
76086;BME280;64791;0.000;0.000;2023-07-20T02:03:55;93494.06;;;16.32;69.05
76086;BME280;64791;0.000;0.000;2023-07-20T02:06:21;93501.94;;;16.15;71.37
76086;BME280;64791;0.000;0.000;2023-07-20T02:08:47;93512.81;;;16.01;71.77
76086;BME280;64791;0.000;0.000;2023-07-20T02:11:13;93500.69;;;15.97;71.04
76086;BME280;64791;0.000;0.000;2023-07-20T02:13:39;93494.84;;;15.93;71.23
76086;BME280;64791;0.000;0.000;2023-07-20T02:16:04;93496.22;;;16.13;70.06
76086;BME280;64791;0.000;0.000;2023-07-20T02:18:30;93485.03;;;16.22;69.75
76086;BME280;64791;0.000;0.000;2023-07-20T02:20:56;93479.41;;;16.32;68.94
76086;BME280;64791;0.000;0.000;2023-07-20T02:23:21;93491.34;;;16.44;68.62
76086;BME280;64791;0.000;0.000;2023-07-20T02:25:47;93487.97;;;16.45;68.86
76086;BME280;64791;0.000;0.000;2023-07-20T02:28:13;93488.69;;;16.46;69.00
76086;BME280;64791;0.000;0.000;2023-07-20T02:30:39;93491.03;;;16.49;69.08
76086;BME280;64791;0.000;0.000;2023-07-20T02:33:05;93497.91;;;16.48;68.70
76086;BME280;64791;0.000;0.000;2023-07-20T02:35:32;93500.91;;;16.41;68.73
76086;BME280;64791;0.000;0.000;2023-07-20T02:37:58;93500.16;;;16.40;68.38
76086;BME280;64791;0.000;0.000;2023-07-20T02:40:23;93497.91;;;16.27;68.08
76086;BME280;64791;0.000;0.000;2023-07-20T02:42:49;93501.53;;;16.30;68.15
76086;BME280;64791;0.000;0.000;2023-07-20T02:45:14;93498.50;;;16.26;69.07
76086;BME280;64791;0.000;0.000;2023-07-20T02:47:40;93488.28;;;16.19;68.61
76086;BME280;64791;0.000;0.000;2023-07-20T02:50:07;93482.91;;;16.11;69.72
76086;BME280;64791;0.000;0.000;2023-07-20T02:52:33;93473.38;;;16.14;70.19
76086;BME280;64791;0.000;0.000;2023-07-20T02:54:58;93473.91;;;16.22;69.57
76086;BME280;64791;0.000;0.000;2023-07-20T02:57:24;93467.28;;;16.27;70.21
76086;BME280;64791;0.000;0.000;2023-07-20T02:59:49;93455.97;;;16.35;69.40
76086;BME280;64791;0.000;0.000;2023-07-20T03:02:15;93453.31;;;16.37;69.43
76086;BME280;64791;0.000;0.000;2023-07-20T03:04:40;93462.78;;;16.43;68.81
76086;BME280;64791;0.000;0.000;2023-07-20T03:07:06;93453.09;;;16.44;68.14
76086;BME280;64791;0.000;0.000;2023-07-20T03:09:34;93449.94;;;16.59;66.91
76086;BME280;64791;0.000;0.000;2023-07-20T03:12:00;93457.91;;;16.53;67.50
76086;BME280;64791;0.000;0.000;2023-07-20T03:14:26;93460.22;;;16.57;66.77
76086;BME280;64791;0.000;0.000;2023-07-20T03:16:52;93473.69;;;16.60;67.60
76086;BME280;64791;0.000;0.000;2023-07-20T03:19:18;93475.00;;;16.59;67.60
76086;BME280;64791;0.000;0.000;2023-07-20T03:21:43;93480.81;;;16.63;67.95
76086;BME280;64791;0.000;0.000;2023-07-20T03:24:09;93485.81;;;16.65;67.19
76086;BME280;64791;0.000;0.000;2023-07-20T03:26:35;93485.94;;;16.67;67.24
76086;BME280;64791;0.000;0.000;2023-07-20T03:29:02;93494.44;;;16.69;67.50
76086;BME280;64791;0.000;0.000;2023-07-20T03:31:28;93500.19;;;16.61;68.81
76086;BME280;64791;0.000;0.000;2023-07-20T03:33:55;93507.41;;;16.55;69.15
76086;BME280;64791;0.000;0.000;2023-07-20T03:36:20;93499.31;;;16.59;68.69
76086;BME280;64791;0.000;0.000;2023-07-20T03:38:47;93499.66;;;16.53;68.64
76086;BME280;64791;0.000;0.000;2023-07-20T03:41:12;93502.38;;;16.63;67.40
76086;BME280;64791;0.000;0.000;2023-07-20T03:43:40;93497.53;;;16.63;67.83
76086;BME280;64791;0.000;0.000;2023-07-20T03:46:05;93497.91;;;16.70;69.24
76086;BME280;64791;0.000;0.000;2023-07-20T03:48:32;93494.22;;;16.77;67.57
76086;BME280;64791;0.000;0.000;2023-07-20T03:50:58;93500.69;;;16.70;70.52
76086;BME280;64791;0.000;0.000;2023-07-20T03:53:26;93497.22;;;16.69;70.31
76086;BME280;64791;0.000;0.000;2023-07-20T03:55:52;93498.72;;;16.82;69.64
76086;BME280;64791;0.000;0.000;2023-07-20T03:58:18;93490.06;;;16.99;68.69
76086;BME280;64791;0.000;0.000;2023-07-20T04:00:45;93498.56;;;17.01;69.81
76086;BME280;64791;0.000;0.000;2023-07-20T04:03:11;93497.63;;;17.08;69.87
76086;BME280;64791;0.000;0.000;2023-07-20T04:05:37;93498.84;;;17.16;69.30
76086;BME280;64791;0.000;0.000;2023-07-20T04:08:02;93499.56;;;17.17;69.86
76086;BME280;64791;0.000;0.000;2023-07-20T04:10:28;93495.03;;;17.33;69.65
76086;BME280;64791;0.000;0.000;2023-07-20T04:12:54;93502.47;;;17.52;68.33
76086;BME280;64791;0.000;0.000;2023-07-20T04:15:19;93498.16;;;17.72;68.28
76086;BME280;64791;0.000;0.000;2023-07-20T04:17:45;93493.53;;;17.88;68.12
76086;BME280;64791;0.000;0.000;2023-07-20T04:20:11;93490.88;;;18.25;66.95
76086;BME280;64791;0.000;0.000;2023-07-20T04:22:37;93495.28;;;19.13;62.65
76086;BME280;64791;0.000;0.000;2023-07-20T04:25:05;93492.84;;;20.21;59.78
76086;BME280;64791;0.000;0.000;2023-07-20T04:27:31;93475.88;;;21.17;56.59
76086;BME280;64791;0.000;0.000;2023-07-20T04:30:00;93476.53;;;21.89;55.04
76086;BME280;64791;0.000;0.000;2023-07-20T04:32:25;93482.38;;;22.57;53.79
76086;BME280;64791;0.000;0.000;2023-07-20T04:34:51;93466.69;;;23.19;51.81
76086;BME280;64791;0.000;0.000;2023-07-20T04:37:18;93471.00;;;23.92;50.46
76086;BME280;64791;0.000;0.000;2023-07-20T04:39:45;93468.47;;;24.57;49.58
76086;BME280;64791;0.000;0.000;2023-07-20T04:42:11;93461.75;;;25.29;47.52
76086;BME280;64791;0.000;0.000;2023-07-20T04:44:37;93462.66;;;25.79;46.92
76086;BME280;64791;0.000;0.000;2023-07-20T04:47:03;93467.56;;;26.26;45.42
76086;BME280;64791;0.000;0.000;2023-07-20T04:49:32;93455.91;;;26.63;44.29
76086;BME280;64791;0.000;0.000;2023-07-20T04:51:58;93448.50;;;27.03;42.68
76086;BME280;64791;0.000;0.000;2023-07-20T04:54:24;93451.09;;;27.51;41.28
76086;BME280;64791;0.000;0.000;2023-07-20T04:56:53;93449.69;;;27.79;41.15
76086;BME280;64791;0.000;0.000;2023-07-20T04:59:20;93460.78;;;28.01;40.74
76086;BME280;64791;0.000;0.000;2023-07-20T05:01:46;93454.78;;;27.87;40.79
76086;BME280;64791;0.000;0.000;2023-07-20T05:04:11;93460.06;;;27.41;41.61
76086;BME280;64791;0.000;0.000;2023-07-20T05:06:37;93470.75;;;27.15;42.43
76086;BME280;64791;0.000;0.000;2023-07-20T05:09:04;93461.03;;;26.96;43.23
76086;BME280;64791;0.000;0.000;2023-07-20T05:11:32;93457.63;;;26.74;43.17
76086;BME280;64791;0.000;0.000;2023-07-20T05:13:59;93465.56;;;26.54;44.04
76086;BME280;64791;0.000;0.000;2023-07-20T05:16:24;93468.59;;;26.37;45.08
76086;BME280;64791;0.000;0.000;2023-07-20T05:18:50;93462.81;;;26.32;44.44
76086;BME280;64791;0.000;0.000;2023-07-20T05:21:17;93469.72;;;26.27;45.44
76086;BME280;64791;0.000;0.000;2023-07-20T05:23:42;93464.06;;;26.27;45.05
76086;BME280;64791;0.000;0.000;2023-07-20T05:26:08;93472.53;;;26.27;45.60
76086;BME280;64791;0.000;0.000;2023-07-20T05:28:35;93481.69;;;26.26;45.31
76086;BME280;64791;0.000;0.000;2023-07-20T05:31:04;93477.44;;;26.49;45.73
76086;BME280;64791;0.000;0.000;2023-07-20T05:33:30;93463.84;;;26.69;45.75
76086;BME280;64791;0.000;0.000;2023-07-20T05:35:56;93449.44;;;26.86;44.42
76086;BME280;64791;0.000;0.000;2023-07-20T05:38:21;93447.50;;;26.93;43.87
76086;BME280;64791;0.000;0.000;2023-07-20T05:40:47;93457.84;;;27.08;43.81
76086;BME280;64791;0.000;0.000;2023-07-20T05:43:13;93463.78;;;27.20;44.20
76086;BME280;64791;0.000;0.000;2023-07-20T05:45:42;93461.97;;;27.33;43.51
76086;BME280;64791;0.000;0.000;2023-07-20T05:48:08;93465.44;;;27.29;43.20
76086;BME280;64791;0.000;0.000;2023-07-20T05:50:41;93473.31;;;27.33;43.76
76086;BME280;64791;0.000;0.000;2023-07-20T05:53:08;93466.56;;;27.18;44.06
76086;BME280;64791;0.000;0.000;2023-07-20T05:55:34;93477.81;;;27.14;44.36
76086;BME280;64791;0.000;0.000;2023-07-20T05:58:00;93490.69;;;27.19;44.94
76086;BME280;64791;0.000;0.000;2023-07-20T06:00:25;93487.22;;;27.23;44.92
76086;BME280;64791;0.000;0.000;2023-07-20T06:02:52;93488.25;;;27.35;43.99
76086;BME280;64791;0.000;0.000;2023-07-20T06:05:18;93491.31;;;28.03;43.21
76086;BME280;64791;0.000;0.000;2023-07-20T06:07:45;93487.19;;;28.39;42.82
76086;BME280;64791;0.000;0.000;2023-07-20T06:10:11;93489.88;;;29.03;41.61
76086;BME280;64791;0.000;0.000;2023-07-20T06:12:36;93477.91;;;29.90;39.71
76086;BME280;64791;0.000;0.000;2023-07-20T06:15:02;93476.06;;;30.62;38.38
76086;BME280;64791;0.000;0.000;2023-07-20T06:17:29;93470.00;;;31.60;35.69
76086;BME280;64791;0.000;0.000;2023-07-20T06:19:54;93465.38;;;32.03;34.45
76086;BME280;64791;0.000;0.000;2023-07-20T06:22:20;93465.91;;;33.08;33.49
76086;BME280;64791;0.000;0.000;2023-07-20T06:24:46;93476.63;;;33.07;31.90
76086;BME280;64791;0.000;0.000;2023-07-20T06:27:11;93474.63;;;33.84;32.02
76086;BME280;64791;0.000;0.000;2023-07-20T06:29:38;93462.41;;;34.48;30.78
76086;BME280;64791;0.000;0.000;2023-07-20T06:32:04;93466.47;;;35.11;29.69
76086;BME280;64791;0.000;0.000;2023-07-20T06:34:30;93462.69;;;35.47;29.71
76086;BME280;64791;0.000;0.000;2023-07-20T06:36:56;93456.94;;;35.49;28.94
76086;BME280;64791;0.000;0.000;2023-07-20T06:39:22;93450.22;;;35.89;28.37
76086;BME280;64791;0.000;0.000;2023-07-20T06:41:48;93444.03;;;36.37;27.15
76086;BME280;64791;0.000;0.000;2023-07-20T06:44:13;93453.94;;;36.50;27.84
76086;BME280;64791;0.000;0.000;2023-07-20T06:46:39;93458.13;;;36.61;27.56
76086;BME280;64791;0.000;0.000;2023-07-20T06:49:07;93457.50;;;36.53;27.71
76086;BME280;64791;0.000;0.000;2023-07-20T06:51:33;93450.19;;;37.25;26.76
76086;BME280;64791;0.000;0.000;2023-07-20T06:53:59;93455.06;;;37.36;26.85
76086;BME280;64791;0.000;0.000;2023-07-20T06:56:24;93455.72;;;36.84;27.11
76086;BME280;64791;0.000;0.000;2023-07-20T06:58:50;93453.06;;;37.23;27.19
76086;BME280;64791;0.000;0.000;2023-07-20T07:01:16;93456.59;;;37.29;26.48
76086;BME280;64791;0.000;0.000;2023-07-20T07:03:42;93466.75;;;37.24;26.38
76086;BME280;64791;0.000;0.000;2023-07-20T07:06:09;93462.72;;;37.01;26.39
76086;BME280;64791;0.000;0.000;2023-07-20T07:08:35;93477.34;;;36.79;27.98
76086;BME280;64791;0.000;0.000;2023-07-20T07:11:01;93473.38;;;36.48;28.22
76086;BME280;64791;0.000;0.000;2023-07-20T07:13:27;93475.50;;;35.62;28.36
76086;BME280;64791;0.000;0.000;2023-07-20T07:15:53;93487.00;;;35.60;28.63
76086;BME280;64791;0.000;0.000;2023-07-20T07:18:18;93495.69;;;35.50;29.74
76086;BME280;64791;0.000;0.000;2023-07-20T07:20:52;93500.59;;;35.68;29.67
76086;BME280;64791;0.000;0.000;2023-07-20T07:23:18;93498.44;;;35.66;29.05
76086;BME280;64791;0.000;0.000;2023-07-20T07:25:44;93507.91;;;35.49;29.75
76086;BME280;64791;0.000;0.000;2023-07-20T07:28:10;93511.66;;;35.09;29.69
76086;BME280;64791;0.000;0.000;2023-07-20T07:30:36;93522.38;;;35.12;30.02
76086;BME280;64791;0.000;0.000;2023-07-20T07:33:01;93524.72;;;34.27;29.87
76086;BME280;64791;0.000;0.000;2023-07-20T07:35:27;93533.91;;;33.41;31.62
76086;BME280;64791;0.000;0.000;2023-07-20T07:37:53;93543.59;;;32.64;33.35
76086;BME280;64791;0.000;0.000;2023-07-20T07:40:19;93545.44;;;33.69;32.86
76086;BME280;64791;0.000;0.000;2023-07-20T07:42:44;93543.31;;;34.71;30.93
76086;BME280;64791;0.000;0.000;2023-07-20T07:45:10;93535.03;;;35.70;28.91
76086;BME280;64791;0.000;0.000;2023-07-20T07:47:35;93535.81;;;36.57;28.39
76086;BME280;64791;0.000;0.000;2023-07-20T07:50:02;93517.38;;;37.03;26.73
76086;BME280;64791;0.000;0.000;2023-07-20T07:52:28;93513.94;;;37.96;26.57
76086;BME280;64791;0.000;0.000;2023-07-20T07:54:54;93513.75;;;37.60;25.16
76086;BME280;64791;0.000;0.000;2023-07-20T07:57:19;93510.97;;;38.47;25.37
76086;BME280;64791;0.000;0.000;2023-07-20T07:59:45;93514.78;;;39.15;23.85
76086;BME280;64791;0.000;0.000;2023-07-20T08:02:11;93508.47;;;39.74;23.51
76086;BME280;64791;0.000;0.000;2023-07-20T08:04:37;93484.28;;;39.90;22.41
76086;BME280;64791;0.000;0.000;2023-07-20T08:07:04;93465.09;;;40.64;22.21
76086;BME280;64791;0.000;0.000;2023-07-20T08:09:30;93466.81;;;39.96;20.48
76086;BME280;64791;0.000;0.000;2023-07-20T08:11:56;93474.16;;;40.19;21.08
76086;BME280;64791;0.000;0.000;2023-07-20T08:14:22;93476.63;;;40.38;21.33
76086;BME280;64791;0.000;0.000;2023-07-20T08:16:47;93469.47;;;40.35;22.02
76086;BME280;64791;0.000;0.000;2023-07-20T08:19:13;93469.19;;;40.73;20.92
76086;BME280;64791;0.000;0.000;2023-07-20T08:21:39;93496.00;;;40.72;20.47
76086;BME280;64791;0.000;0.000;2023-07-20T08:24:05;93501.78;;;40.72;20.81
76086;BME280;64791;0.000;0.000;2023-07-20T08:26:31;93501.09;;;40.43;21.66
76086;BME280;64791;0.000;0.000;2023-07-20T08:28:56;93506.63;;;40.22;20.49
76086;BME280;64791;0.000;0.000;2023-07-20T08:31:22;93511.19;;;40.72;21.54
76086;BME280;64791;0.000;0.000;2023-07-20T08:33:47;93509.69;;;41.27;20.61
76086;BME280;64791;0.000;0.000;2023-07-20T08:36:14;93510.00;;;41.66;20.79
76086;BME280;64791;0.000;0.000;2023-07-20T08:38:40;93516.13;;;41.29;20.66
76086;BME280;64791;0.000;0.000;2023-07-20T08:41:05;93503.28;;;41.49;20.81
76086;BME280;64791;0.000;0.000;2023-07-20T08:43:31;93496.03;;;39.49;21.36
76086;BME280;64791;0.000;0.000;2023-07-20T08:45:58;93495.84;;;39.90;21.87
76086;BME280;64791;0.000;0.000;2023-07-20T08:48:24;93500.03;;;40.28;21.59
76086;BME280;64791;0.000;0.000;2023-07-20T08:50:52;93498.75;;;40.49;22.01
76086;BME280;64791;0.000;0.000;2023-07-20T08:53:19;93497.53;;;40.69;21.90
76086;BME280;64791;0.000;0.000;2023-07-20T08:55:45;93494.75;;;40.65;21.13
76086;BME280;64791;0.000;0.000;2023-07-20T08:58:13;93491.84;;;39.42;21.28
76086;BME280;64791;0.000;0.000;2023-07-20T09:00:41;93502.00;;;40.35;22.65
76086;BME280;64791;0.000;0.000;2023-07-20T09:03:06;93505.66;;;40.34;22.16
76086;BME280;64791;0.000;0.000;2023-07-20T09:05:33;93499.56;;;40.15;23.06
76086;BME280;64791;0.000;0.000;2023-07-20T09:08:00;93493.00;;;39.22;22.10
76086;BME280;64791;0.000;0.000;2023-07-20T09:10:29;93502.78;;;39.37;23.18
76086;BME280;64791;0.000;0.000;2023-07-20T09:12:55;93501.78;;;39.14;23.52
76086;BME280;64791;0.000;0.000;2023-07-20T09:15:21;93488.22;;;39.43;22.99
76086;BME280;64791;0.000;0.000;2023-07-20T09:17:47;93489.03;;;39.38;22.31
76086;BME280;64791;0.000;0.000;2023-07-20T09:20:14;93499.53;;;39.19;23.54
76086;BME280;64791;0.000;0.000;2023-07-20T09:22:40;93487.34;;;38.39;22.80
76086;BME280;64791;0.000;0.000;2023-07-20T09:25:11;93493.31;;;38.67;22.55
76086;BME280;64791;0.000;0.000;2023-07-20T09:27:40;93501.28;;;38.65;23.72
76086;BME280;64791;0.000;0.000;2023-07-20T09:30:07;93496.16;;;38.69;21.39
76086;BME280;64791;0.000;0.000;2023-07-20T09:32:41;93490.69;;;39.29;22.88
76086;BME280;64791;0.000;0.000;2023-07-20T09:35:17;93490.88;;;39.19;21.64
76086;BME280;64791;0.000;0.000;2023-07-20T09:37:47;93481.78;;;39.41;21.66
76086;BME280;64791;0.000;0.000;2023-07-20T09:40:16;93476.16;;;39.33;21.07
76086;BME280;64791;0.000;0.000;2023-07-20T09:42:43;93473.78;;;38.31;21.25
76086;BME280;64791;0.000;0.000;2023-07-20T09:45:09;93475.50;;;38.94;21.72
76086;BME280;64791;0.000;0.000;2023-07-20T09:47:38;93479.03;;;38.61;22.08
76086;BME280;64791;0.000;0.000;2023-07-20T09:50:04;93471.91;;;38.11;22.62
76086;BME280;64791;0.000;0.000;2023-07-20T09:52:37;93472.41;;;38.67;22.55
76086;BME280;64791;0.000;0.000;2023-07-20T09:55:03;93461.38;;;38.79;22.08
76086;BME280;64791;0.000;0.000;2023-07-20T09:57:29;93457.94;;;38.69;22.09
76086;BME280;64791;0.000;0.000;2023-07-20T09:59:56;93458.16;;;38.59;22.61
76086;BME280;64791;0.000;0.000;2023-07-20T10:02:25;93454.22;;;38.76;22.23
76086;BME280;64791;0.000;0.000;2023-07-20T10:04:56;93450.75;;;38.29;22.05
76086;BME280;64791;0.000;0.000;2023-07-20T10:07:24;93439.03;;;37.96;22.52
76086;BME280;64791;0.000;0.000;2023-07-20T10:09:53;93454.88;;;37.49;22.89
76086;BME280;64791;0.000;0.000;2023-07-20T10:12:22;93441.66;;;37.15;22.18
76086;BME280;64791;0.000;0.000;2023-07-20T10:15:01;93434.97;;;36.09;23.42
76086;BME280;64791;0.000;0.000;2023-07-20T10:17:33;93442.75;;;36.18;24.49
76086;BME280;64791;0.000;0.000;2023-07-20T10:20:00;93434.13;;;35.21;24.10
76086;BME280;64791;0.000;0.000;2023-07-20T10:22:29;93439.06;;;35.37;25.38
76086;BME280;64791;0.000;0.000;2023-07-20T10:24:56;93445.75;;;34.91;26.12
76086;BME280;64791;0.000;0.000;2023-07-20T10:27:24;93440.03;;;34.99;26.15
76086;BME280;64791;0.000;0.000;2023-07-20T10:29:50;93448.88;;;33.64;25.56
76086;BME280;64791;0.000;0.000;2023-07-20T10:32:16;93456.00;;;33.77;27.25
76086;BME280;64791;0.000;0.000;2023-07-20T10:34:42;93449.47;;;33.04;27.22
76086;BME280;64791;0.000;0.000;2023-07-20T10:37:08;93453.88;;;33.78;27.72
76086;BME280;64791;0.000;0.000;2023-07-20T10:39:34;93450.22;;;34.41;28.29
76086;BME280;64791;0.000;0.000;2023-07-20T10:42:09;93455.19;;;34.59;25.70
76086;BME280;64791;0.000;0.000;2023-07-20T10:44:38;93451.59;;;34.67;25.86
76086;BME280;64791;0.000;0.000;2023-07-20T10:47:11;93448.13;;;34.10;25.15
76086;BME280;64791;0.000;0.000;2023-07-20T10:52:22;93440.94;;;33.32;25.01
76086;BME280;64791;0.000;0.000;2023-07-20T10:54:48;93455.31;;;33.79;27.50
76086;BME280;64791;0.000;0.000;2023-07-20T10:59:48;93430.97;;;34.08;24.96
76086;BME280;64791;0.000;0.000;2023-07-20T11:02:17;93423.75;;;34.27;26.05
76086;BME280;64791;0.000;0.000;2023-07-20T11:04:43;93395.16;;;34.17;24.39
76086;BME280;64791;0.000;0.000;2023-07-20T11:07:09;93377.31;;;33.62;24.45
76086;BME280;64791;0.000;0.000;2023-07-20T11:09:36;93397.34;;;33.60;24.51
76086;BME280;64791;0.000;0.000;2023-07-20T11:12:12;93394.50;;;33.68;25.71
76086;BME280;64791;0.000;0.000;2023-07-20T11:14:42;93398.03;;;33.87;26.32
76086;BME280;64791;0.000;0.000;2023-07-20T11:17:11;93393.75;;;33.94;26.78
76086;BME280;64791;0.000;0.000;2023-07-20T11:19:38;93356.53;;;33.94;25.85
76086;BME280;64791;0.000;0.000;2023-07-20T11:22:04;93370.84;;;33.98;24.06
76086;BME280;64791;0.000;0.000;2023-07-20T11:24:33;93388.72;;;33.92;25.40
76086;BME280;64791;0.000;0.000;2023-07-20T11:27:00;93368.53;;;34.53;26.26
76086;BME280;64791;0.000;0.000;2023-07-20T11:29:26;93364.47;;;35.37;25.01
76086;BME280;64791;0.000;0.000;2023-07-20T11:31:53;93372.84;;;35.69;24.20
76086;BME280;64791;0.000;0.000;2023-07-20T11:34:19;93377.31;;;35.50;23.61
76086;BME280;64791;0.000;0.000;2023-07-20T11:36:46;93381.47;;;35.67;23.28
76086;BME280;64791;0.000;0.000;2023-07-20T11:39:13;93377.19;;;35.62;22.81
76086;BME280;64791;0.000;0.000;2023-07-20T11:41:44;93370.06;;;35.57;23.63
76086;BME280;64791;0.000;0.000;2023-07-20T11:44:10;93363.78;;;35.30;23.12
76086;BME280;64791;0.000;0.000;2023-07-20T11:46:40;93352.69;;;35.73;23.13
76086;BME280;64791;0.000;0.000;2023-07-20T11:49:07;93351.91;;;35.82;23.46
76086;BME280;64791;0.000;0.000;2023-07-20T11:51:33;93348.66;;;35.46;23.24
76086;BME280;64791;0.000;0.000;2023-07-20T11:54:00;93346.84;;;35.85;23.29
76086;BME280;64791;0.000;0.000;2023-07-20T11:56:26;93335.88;;;36.06;22.09
76086;BME280;64791;0.000;0.000;2023-07-20T11:58:55;93337.75;;;36.31;22.71
76086;BME280;64791;0.000;0.000;2023-07-20T12:01:25;93326.66;;;36.58;23.01
76086;BME280;64791;0.000;0.000;2023-07-20T12:03:55;93332.72;;;36.32;20.58
76086;BME280;64791;0.000;0.000;2023-07-20T12:06:22;93324.72;;;36.40;22.34
76086;BME280;64791;0.000;0.000;2023-07-20T12:08:48;93331.38;;;36.84;23.59
76086;BME280;64791;0.000;0.000;2023-07-20T12:11:14;93325.69;;;36.80;23.06
76086;BME280;64791;0.000;0.000;2023-07-20T12:13:57;93322.25;;;36.63;23.25
76086;BME280;64791;0.000;0.000;2023-07-20T12:16:26;93320.59;;;36.82;24.37
76086;BME280;64791;0.000;0.000;2023-07-20T12:18:52;93309.53;;;36.48;23.63
76086;BME280;64791;0.000;0.000;2023-07-20T12:21:24;93323.88;;;36.50;23.49
76086;BME280;64791;0.000;0.000;2023-07-20T12:23:50;93315.09;;;36.62;23.21
76086;BME280;64791;0.000;0.000;2023-07-20T12:26:15;93313.72;;;36.57;24.00
76086;BME280;64791;0.000;0.000;2023-07-20T12:28:41;93304.69;;;36.34;22.03
76086;BME280;64791;0.000;0.000;2023-07-20T12:31:10;93295.84;;;35.92;23.32
76086;BME280;64791;0.000;0.000;2023-07-20T12:33:39;93298.03;;;36.48;25.82
76086;BME280;64791;0.000;0.000;2023-07-20T12:36:05;93292.59;;;36.79;24.54
76086;BME280;64791;0.000;0.000;2023-07-20T12:38:30;93293.00;;;37.01;24.38
76086;BME280;64791;0.000;0.000;2023-07-20T12:40:57;93299.38;;;37.53;24.48
76086;BME280;64791;0.000;0.000;2023-07-20T12:43:23;93292.81;;;37.56;23.34
76086;BME280;64791;0.000;0.000;2023-07-20T12:45:49;93289.06;;;37.66;23.38
76086;BME280;64791;0.000;0.000;2023-07-20T12:48:15;93286.25;;;37.62;23.21
76086;BME280;64791;0.000;0.000;2023-07-20T12:50:41;93284.63;;;37.73;23.00
76086;BME280;64791;0.000;0.000;2023-07-20T12:53:06;93281.25;;;37.60;23.88
76086;BME280;64791;0.000;0.000;2023-07-20T12:55:32;93278.16;;;37.74;22.92
76086;BME280;64791;0.000;0.000;2023-07-20T12:57:58;93279.28;;;37.49;22.75
76086;BME280;64791;0.000;0.000;2023-07-20T13:00:24;93281.31;;;37.97;23.21
76086;BME280;64791;0.000;0.000;2023-07-20T13:02:50;93276.38;;;37.91;23.14
76086;BME280;64791;0.000;0.000;2023-07-20T13:05:15;93282.63;;;37.63;21.54
76086;BME280;64791;0.000;0.000;2023-07-20T13:07:42;93272.47;;;37.68;23.35
76086;BME280;64791;0.000;0.000;2023-07-20T13:10:08;93264.59;;;37.22;22.60
76086;BME280;64791;0.000;0.000;2023-07-20T13:12:35;93271.19;;;37.14;23.62
76086;BME280;64791;0.000;0.000;2023-07-20T13:15:02;93278.97;;;37.24;22.95
76086;BME280;64791;0.000;0.000;2023-07-20T13:17:31;93269.63;;;37.64;22.17
76086;BME280;64791;0.000;0.000;2023-07-20T13:19:57;93267.94;;;37.38;22.12